createdAt,value
2023-01-01T00:02:04.425Z,8.39
2023-01-01T00:04:35.488Z,8.34
2023-01-01T00:07:04.743Z,8.26
2023-01-01T00:09:51.858Z,8.11
2023-01-01T00:12:21.084Z,8.10
2023-01-01T00:14:49.957Z,8.08
2023-01-01T00:17:18.978Z,8.13
2023-01-01T00:19:48.253Z,8.27
2023-01-01T00:22:52.729Z,8.28
2023-01-01T00:25:09.930Z,8.31
2023-01-01T00:27:38.974Z,8.29
2023-01-01T00:30:08.914Z,8.24
2023-01-01T00:32:40.328Z,8.15
2023-01-01T00:35:10.510Z,8.13
2023-01-01T00:37:46.411Z,8.16
2023-01-01T00:40:15.687Z,8.17
2023-01-01T00:42:44.545Z,8.24
2023-01-01T00:45:20.600Z,8.17
2023-01-01T00:47:52.968Z,7.95
2023-01-01T00:50:26.532Z,8.00
2023-01-01T00:52:55.587Z,8.02
2023-01-01T00:55:24.487Z,8.04
2023-01-01T00:57:53.545Z,8.10
2023-01-01T01:00:22.650Z,8.09
2023-01-01T01:02:51.712Z,7.99
2023-01-01T01:05:20.805Z,7.97
2023-01-01T01:07:49.946Z,7.92
2023-01-01T01:10:19.763Z,7.50
2023-01-01T01:12:49.014Z,7.36
2023-01-01T01:15:18.703Z,7.48
2023-01-01T01:17:54.920Z,7.45
2023-01-01T01:20:24.320Z,7.42
2023-01-01T01:22:53.206Z,7.44
2023-01-01T01:25:25.661Z,7.45
2023-01-01T01:27:54.689Z,7.60
2023-01-01T01:30:23.684Z,7.62
2023-01-01T01:32:55.324Z,7.57
2023-01-01T01:35:34.189Z,7.62
2023-01-01T01:38:03.487Z,7.60
2023-01-01T01:40:33.515Z,7.66
2023-01-01T01:43:34.175Z,7.73
2023-01-01T01:46:11.862Z,7.80
2023-01-01T01:48:45.318Z,7.84
2023-01-01T01:51:27.085Z,7.80
2023-01-01T01:54:03.494Z,7.78
2023-01-01T01:56:46.409Z,7.78
2023-01-01T01:59:17.324Z,7.80
2023-01-01T02:01:46.395Z,7.84
2023-01-01T02:04:15.566Z,7.82
2023-01-01T02:06:45.706Z,7.78
2023-01-01T02:09:14.876Z,7.75
2023-01-01T02:11:44.898Z,7.68
2023-01-01T02:14:17.385Z,7.63
2023-01-01T02:17:10.787Z,7.60
2023-01-01T02:19:51.348Z,7.66
2023-01-01T02:22:35.002Z,7.65
2023-01-01T02:25:22.185Z,7.46
2023-01-01T02:28:22.403Z,7.32
2023-01-01T02:30:54.253Z,7.38
2023-01-01T02:33:27.839Z,7.48
2023-01-01T02:36:04.132Z,7.38
2023-01-01T02:38:43.505Z,7.22
2023-01-01T02:41:32.876Z,7.47
2023-01-01T02:46:35.258Z,7.56
2023-01-01T02:49:10.228Z,7.62
2023-01-01T02:51:45.671Z,7.67
2023-01-01T02:54:20.811Z,7.68
2023-01-01T02:57:03.692Z,7.27
2023-01-01T03:00:03.770Z,7.26
2023-01-01T03:02:54.398Z,7.70
2023-01-01T03:06:05.314Z,7.75
2023-01-01T03:09:04.335Z,7.72
2023-01-01T03:11:45.068Z,7.73
2023-01-01T03:14:49.424Z,7.41
2023-01-01T03:17:34.388Z,7.56
2023-01-01T03:20:09.782Z,7.42
2023-01-01T03:25:24.047Z,7.38
2023-01-01T03:28:07.594Z,7.53
2023-01-01T03:30:39.614Z,7.58
2023-01-01T03:33:25.067Z,7.33
2023-01-01T03:35:58.670Z,7.04
2023-01-01T03:38:40.419Z,7.07
2023-01-01T03:41:48.858Z,7.11
2023-01-01T03:44:37.879Z,7.06
2023-01-01T03:47:11.383Z,7.00
2023-01-01T03:49:43.895Z,6.96
2023-01-01T03:53:11.477Z,6.79
2023-01-01T03:55:57.312Z,6.86
2023-01-01T03:58:41.595Z,6.74
2023-01-01T04:01:43.345Z,6.94
2023-01-01T04:08:19.770Z,7.53
2023-01-01T04:10:54.336Z,7.38
2023-01-01T04:13:23.473Z,7.38
2023-01-01T04:15:56.199Z,7.01
2023-01-01T04:18:25.502Z,6.87
2023-01-01T04:20:55.722Z,6.93
2023-01-01T04:23:24.736Z,7.01
2023-01-01T04:25:53.636Z,7.02
2023-01-01T04:28:23.303Z,6.91
2023-01-01T04:33:20.379Z,6.73
2023-01-01T04:35:49.308Z,6.62
2023-01-01T04:38:18.233Z,6.76
2023-01-01T04:40:48.312Z,6.57
2023-01-01T04:43:17.332Z,6.66
2023-01-01T04:45:55.864Z,6.66
2023-01-01T04:48:25.097Z,6.64
2023-01-01T04:51:05.534Z,6.78
2023-01-01T04:53:36.001Z,6.72
2023-01-01T04:56:09.309Z,6.95
2023-01-01T04:58:40.226Z,6.87
2023-01-01T05:01:09.958Z,7.04
2023-01-01T05:03:38.954Z,7.05
2023-01-01T05:06:13.435Z,7.04
2023-01-01T05:08:45.598Z,6.88
2023-01-01T05:11:22.915Z,6.93
2023-01-01T05:13:54.630Z,6.87
2023-01-01T05:16:27.321Z,6.90
2023-01-01T05:18:57.198Z,6.84
2023-01-01T05:21:32.838Z,6.81
2023-01-01T05:24:05.818Z,6.69
2023-01-01T05:26:38.083Z,6.57
2023-01-01T05:29:15.313Z,6.76
2023-01-01T05:31:46.274Z,6.76
2023-01-01T05:34:15.419Z,6.72
2023-01-01T05:36:44.454Z,6.41
2023-01-01T05:39:16.657Z,6.65
2023-01-01T05:41:45.759Z,6.59
2023-01-01T05:44:17.386Z,6.58
2023-01-01T05:46:47.504Z,6.45
2023-01-01T05:49:16.565Z,6.55
2023-01-01T05:51:45.610Z,6.49
2023-01-01T05:56:41.678Z,6.39
2023-01-01T05:59:12.128Z,6.42
2023-01-01T06:01:45.448Z,6.40
2023-01-01T06:04:15.342Z,6.37
2023-01-01T06:06:44.356Z,6.30
2023-01-01T06:09:13.291Z,6.19
2023-01-01T06:11:42.222Z,6.21
2023-01-01T06:14:11.254Z,6.28
2023-01-01T06:16:40.219Z,6.31
2023-01-01T06:19:09.353Z,6.18
2023-01-01T06:21:38.691Z,6.15
2023-01-01T06:24:09.248Z,6.05
2023-01-01T06:26:38.270Z,6.02
2023-01-01T06:29:07.235Z,6.10
2023-01-01T06:31:40.578Z,6.25
2023-01-01T06:34:10.329Z,6.31
2023-01-01T06:36:39.325Z,6.44
2023-01-01T06:39:08.390Z,6.47
2023-01-01T06:41:38.050Z,6.46
2023-01-01T06:44:07.164Z,6.56
2023-01-01T06:46:37.307Z,6.55
2023-01-01T06:49:11.905Z,6.57
2023-01-01T06:51:43.051Z,6.59
2023-01-01T06:54:13.187Z,6.60
2023-01-01T06:56:42.274Z,6.62
2023-01-01T06:59:11.223Z,6.52
2023-01-01T07:01:44.401Z,6.41
2023-01-01T07:04:17.122Z,6.52
2023-01-01T07:06:46.058Z,6.45
2023-01-01T07:09:14.975Z,6.39
2023-01-01T07:11:43.931Z,6.32
2023-01-01T07:14:15.291Z,6.32
2023-01-01T07:16:44.265Z,6.33
2023-01-01T07:19:13.649Z,6.34
2023-01-01T07:21:52.483Z,6.63
2023-01-01T07:24:22.097Z,6.72
2023-01-01T07:26:51.953Z,6.81
2023-01-01T07:29:20.962Z,6.80
2023-01-01T07:31:49.979Z,6.82
2023-01-01T07:34:24.668Z,6.82
2023-01-01T07:36:53.744Z,6.81
2023-01-01T07:39:22.616Z,6.83
2023-01-01T07:41:51.616Z,6.80
2023-01-01T07:44:20.495Z,6.81
2023-01-01T07:46:49.576Z,6.85
2023-01-01T07:49:18.553Z,6.85
2023-01-01T07:51:47.414Z,6.85
2023-01-01T07:54:16.498Z,6.86
2023-01-01T07:56:45.503Z,6.85
2023-01-01T07:59:18.483Z,6.84
2023-01-01T08:01:49.572Z,6.86
2023-01-01T08:04:18.535Z,6.85
2023-01-01T08:06:47.402Z,6.79
2023-01-01T08:09:16.520Z,6.47
2023-01-01T08:11:45.512Z,6.61
2023-01-01T08:14:15.534Z,6.43
2023-01-01T08:16:44.475Z,6.20
2023-01-01T08:19:14.042Z,6.33
2023-01-01T08:21:52.337Z,6.38
2023-01-01T08:24:21.283Z,6.44
2023-01-01T08:26:51.513Z,6.59
2023-01-01T08:29:24.043Z,6.68
2023-01-01T08:31:55.613Z,6.71
2023-01-01T08:34:24.842Z,6.64
2023-01-01T08:36:56.118Z,6.67
2023-01-01T08:39:25.070Z,6.56
2023-01-01T08:41:55.347Z,6.58
2023-01-01T08:44:24.760Z,6.88
2023-01-01T08:46:56.805Z,6.75
2023-01-01T08:49:27.277Z,6.46
2023-01-01T08:51:58.329Z,6.65
2023-01-01T08:54:27.455Z,6.66
2023-01-01T08:56:57.947Z,6.72
2023-01-01T08:59:28.952Z,6.67
2023-01-01T09:01:58.193Z,6.71
2023-01-01T09:04:27.743Z,6.75
2023-01-01T09:06:56.743Z,6.77
2023-01-01T09:09:31.695Z,6.60
2023-01-01T09:12:12.687Z,6.72
2023-01-01T09:14:43.730Z,6.75
2023-01-01T09:17:12.701Z,6.71
2023-01-01T09:19:44.317Z,6.52
2023-01-01T09:22:14.418Z,6.32
2023-01-01T09:24:43.407Z,6.28
2023-01-01T09:27:12.322Z,6.42
2023-01-01T09:29:44.289Z,6.44
2023-01-01T09:32:13.459Z,6.41
2023-01-01T09:34:46.013Z,6.17
2023-01-01T09:37:17.781Z,6.15
2023-01-01T09:39:46.711Z,5.96
2023-01-01T09:42:47.388Z,5.91
2023-01-01T09:45:27.845Z,6.23
2023-01-01T09:48:12.603Z,6.15
2023-01-01T09:50:47.311Z,6.37
2023-01-01T09:53:32.470Z,6.45
2023-01-01T09:56:04.478Z,6.31
2023-01-01T09:58:38.976Z,6.19
2023-01-01T10:01:21.207Z,6.25
2023-01-01T10:04:00.386Z,6.46
2023-01-01T10:06:33.388Z,6.39
2023-01-01T10:09:11.443Z,6.26
2023-01-01T10:12:08.187Z,6.39
2023-01-01T10:15:03.116Z,6.37
2023-01-01T10:17:42.729Z,6.54
2023-01-01T10:20:35.873Z,6.57
2023-01-01T10:23:27.908Z,6.41
2023-01-01T10:25:59.408Z,6.44
2023-01-01T10:28:51.261Z,6.92
2023-01-01T10:31:47.124Z,6.80
2023-01-01T10:34:28.916Z,6.38
2023-01-01T10:37:00.944Z,6.43
2023-01-01T10:39:30.170Z,6.35
2023-01-01T10:42:01.447Z,6.53
2023-01-01T10:44:32.905Z,6.48
2023-01-01T10:47:26.265Z,6.51
2023-01-01T10:50:00.760Z,6.55
2023-01-01T10:52:41.597Z,6.55
2023-01-01T10:55:30.730Z,6.51
2023-01-01T10:57:59.886Z,6.64
2023-01-01T11:00:29.928Z,6.64
2023-01-01T11:03:22.333Z,6.61
2023-01-01T11:06:10.371Z,6.71
2023-01-01T11:08:42.770Z,6.71
2023-01-01T11:11:42.868Z,6.72
2023-01-01T11:14:27.092Z,6.67
2023-01-01T11:16:57.890Z,6.70
2023-01-01T11:19:34.421Z,6.69
2023-01-01T11:22:05.704Z,6.48
2023-01-01T11:24:41.333Z,6.25
2023-01-01T11:27:26.168Z,6.36
2023-01-01T11:30:21.257Z,6.43
2023-01-01T11:32:55.658Z,6.26
2023-01-01T11:35:28.156Z,6.21
2023-01-01T11:37:59.103Z,6.19
2023-01-01T11:40:46.372Z,6.24
2023-01-01T11:43:24.050Z,6.21
2023-01-01T11:45:56.505Z,6.11
2023-01-01T11:48:32.291Z,6.51
2023-01-01T11:51:28.947Z,6.50
2023-01-01T11:54:40.288Z,6.59
2023-01-01T11:57:24.741Z,6.76
2023-01-01T12:00:05.821Z,6.75
2023-01-01T12:03:07.578Z,6.61
2023-01-01T12:06:11.254Z,6.42
2023-01-01T12:09:04.817Z,6.26
2023-01-01T12:11:42.697Z,6.20
2023-01-01T12:14:57.726Z,6.15
2023-01-01T12:17:52.322Z,6.30
2023-01-01T12:20:28.534Z,6.47
2023-01-01T12:22:59.395Z,6.51
2023-01-01T12:25:40.065Z,6.52
2023-01-01T12:28:27.718Z,6.38
2023-01-01T12:31:26.187Z,6.30
2023-01-01T12:34:21.439Z,6.08
2023-01-01T12:37:17.831Z,6.17
2023-01-01T12:40:01.455Z,6.17
2023-01-01T12:42:40.411Z,6.25
2023-01-01T12:45:32.828Z,6.40
2023-01-01T12:48:20.528Z,6.40
2023-01-01T12:51:26.624Z,6.47
2023-01-01T12:53:58.290Z,6.50
2023-01-01T12:56:55.081Z,6.44
2023-01-01T12:59:33.385Z,6.28
2023-01-01T13:02:11.440Z,6.09
2023-01-01T13:04:43.078Z,6.17
2023-01-01T13:07:14.757Z,6.26
2023-01-01T13:09:49.152Z,6.36
2023-01-01T13:12:25.345Z,6.42
2023-01-01T13:14:54.360Z,6.32
2023-01-01T13:17:30.214Z,5.99
2023-01-01T13:20:25.597Z,5.78
2023-01-01T13:22:54.519Z,5.93
2023-01-01T13:25:25.854Z,6.03
2023-01-01T13:27:58.320Z,6.01
2023-01-01T13:30:40.475Z,6.04
2023-01-01T13:33:26.519Z,6.00
2023-01-01T13:36:14.091Z,5.99
2023-01-01T13:38:53.774Z,5.95
2023-01-01T13:41:28.922Z,5.98
2023-01-01T13:44:00.816Z,6.01
2023-01-01T13:46:46.563Z,5.99
2023-01-01T13:49:42.944Z,5.85
2023-01-01T13:52:30.151Z,5.77
2023-01-01T13:55:29.718Z,5.77
2023-01-01T13:58:55.825Z,5.89
2023-01-01T14:02:02.820Z,6.00
2023-01-01T14:04:44.800Z,5.96
2023-01-01T14:07:53.063Z,5.94
2023-01-01T14:10:24.607Z,5.96
2023-01-01T14:12:55.693Z,6.01
2023-01-01T14:15:26.497Z,5.95
2023-01-01T14:17:58.701Z,5.89
2023-01-01T14:20:49.680Z,5.66
2023-01-01T14:23:21.812Z,5.58
2023-01-01T14:25:51.552Z,5.60
2023-01-01T14:28:35.937Z,5.64
2023-01-01T14:31:15.066Z,5.74
2023-01-01T14:33:44.215Z,5.68
2023-01-01T14:36:26.466Z,5.32
2023-01-01T14:38:57.528Z,5.27
2023-01-01T14:41:38.784Z,5.34
2023-01-01T14:44:09.251Z,5.50
2023-01-01T14:46:43.461Z,5.66
2023-01-01T14:49:23.186Z,5.64
2023-01-01T14:51:58.042Z,6.06
2023-01-01T14:54:37.233Z,6.07
2023-01-01T14:57:15.022Z,5.85
2023-01-01T14:59:55.521Z,5.65
2023-01-01T15:02:31.090Z,5.62
2023-01-01T15:05:00.523Z,5.61
2023-01-01T15:07:33.128Z,5.64
2023-01-01T15:10:07.302Z,5.72
2023-01-01T15:12:38.204Z,6.05
2023-01-01T15:15:08.078Z,5.75
2023-01-01T15:17:47.617Z,5.55
2023-01-01T15:20:25.176Z,5.73
2023-01-01T15:22:55.816Z,5.69
2023-01-01T15:25:25.850Z,5.97
2023-01-01T15:27:56.607Z,6.06
2023-01-01T15:30:34.830Z,6.05
2023-01-01T15:33:10.719Z,5.93
2023-01-01T15:35:39.885Z,5.69
2023-01-01T15:38:19.803Z,5.44
2023-01-01T15:40:53.229Z,5.38
2023-01-01T15:43:30.440Z,5.38
2023-01-01T15:46:20.443Z,5.35
2023-01-01T15:48:52.845Z,5.35
2023-01-01T15:51:25.783Z,5.45
2023-01-01T15:54:01.294Z,5.68
2023-01-01T15:56:33.521Z,5.58
2023-01-01T15:59:19.736Z,5.54
2023-01-01T16:01:51.947Z,5.72
2023-01-01T16:04:28.695Z,6.05
2023-01-01T16:06:59.461Z,5.92
2023-01-01T16:09:28.602Z,5.72
2023-01-01T16:12:00.138Z,5.74
2023-01-01T16:14:30.094Z,5.75
2023-01-01T16:17:01.636Z,5.91
2023-01-01T16:19:36.939Z,5.93
2023-01-01T16:22:06.348Z,5.86
2023-01-01T16:24:38.278Z,5.81
2023-01-01T16:27:07.481Z,5.60
2023-01-01T16:29:36.978Z,5.58
2023-01-01T16:32:06.904Z,5.49
2023-01-01T16:34:35.789Z,5.66
2023-01-01T16:37:04.715Z,5.61
2023-01-01T16:39:33.593Z,5.43
2023-01-01T16:42:02.654Z,5.56
2023-01-01T16:44:31.538Z,5.47
2023-01-01T16:47:00.573Z,5.36
2023-01-01T16:49:29.603Z,5.70
2023-01-01T16:51:58.624Z,5.56
2023-01-01T16:54:27.616Z,5.40
2023-01-01T16:56:56.584Z,5.38
2023-01-01T16:59:26.025Z,5.35
2023-01-01T17:01:55.462Z,5.35
2023-01-01T17:04:24.507Z,5.36
2023-01-01T17:06:53.582Z,5.44
2023-01-01T17:09:24.030Z,5.42
2023-01-01T17:11:54.319Z,5.41
2023-01-01T17:14:23.424Z,5.43
2023-01-01T17:16:57.234Z,5.93
2023-01-01T17:19:29.336Z,5.77
2023-01-01T17:21:58.523Z,5.97
2023-01-01T17:24:31.214Z,6.19
2023-01-01T17:27:00.413Z,6.45
2023-01-01T17:29:29.455Z,6.49
2023-01-01T17:31:59.432Z,6.56
2023-01-01T17:34:28.750Z,6.56
2023-01-01T17:36:59.380Z,6.36
2023-01-01T17:39:28.476Z,6.02
2023-01-01T17:41:58.819Z,5.91
2023-01-01T17:44:27.781Z,5.91
2023-01-01T17:46:56.749Z,5.85
2023-01-01T17:49:25.860Z,6.18
2023-01-01T17:51:54.778Z,6.07
2023-01-01T17:54:23.832Z,6.12
2023-01-01T17:56:54.939Z,6.06
2023-01-01T17:59:24.792Z,6.35
2023-01-01T18:01:53.757Z,6.49
2023-01-01T18:04:23.541Z,6.42
2023-01-01T18:06:54.649Z,6.34
2023-01-01T18:09:24.403Z,6.24
2023-01-01T18:11:53.290Z,6.27
2023-01-01T18:14:24.901Z,5.92
2023-01-01T18:16:53.995Z,5.69
2023-01-01T18:19:22.889Z,5.71
2023-01-01T18:21:51.831Z,5.74
2023-01-01T18:24:20.763Z,6.07
2023-01-01T18:26:49.672Z,5.95
2023-01-01T18:29:19.063Z,5.85
2023-01-01T18:31:52.330Z,6.20
2023-01-01T18:34:21.396Z,6.48
2023-01-01T18:36:50.619Z,6.57
2023-01-01T18:39:27.483Z,6.58
2023-01-01T18:42:12.329Z,6.37
2023-01-01T18:44:42.100Z,6.58
2023-01-01T18:47:20.316Z,6.53
2023-01-01T18:50:00.508Z,6.56
2023-01-01T18:52:34.725Z,6.59
2023-01-01T18:55:09.916Z,6.58
2023-01-01T18:57:39.383Z,6.57
2023-01-01T19:00:19.727Z,6.53
2023-01-01T19:02:58.505Z,6.60
2023-01-01T19:05:32.731Z,6.54
2023-01-01T19:08:07.648Z,6.68
2023-01-01T19:10:48.900Z,6.81
2023-01-01T19:13:24.507Z,6.85
2023-01-01T19:16:24.229Z,6.84
2023-01-01T19:18:57.974Z,6.74
2023-01-01T19:22:15.697Z,6.48
2023-01-01T19:24:56.538Z,6.36
2023-01-01T19:27:37.048Z,6.32
2023-01-01T19:30:28.416Z,7.00
2023-01-01T19:32:57.351Z,6.73
2023-01-01T19:35:29.144Z,6.78
2023-01-01T19:37:58.696Z,6.96
2023-01-01T19:40:27.649Z,7.03
2023-01-01T19:42:59.727Z,7.12
2023-01-01T19:45:30.513Z,7.09
2023-01-01T19:47:59.614Z,7.11
2023-01-01T19:50:33.356Z,7.30
2023-01-01T19:53:15.211Z,7.39
2023-01-01T19:55:48.626Z,7.57
2023-01-01T19:58:33.251Z,7.70
2023-01-01T20:01:05.525Z,8.04
2023-01-01T20:04:02.746Z,7.86
2023-01-01T20:06:56.193Z,8.08
2023-01-01T20:09:39.955Z,8.03
2023-01-01T20:12:09.050Z,8.07
2023-01-01T20:14:40.563Z,8.27
2023-01-01T20:17:13.633Z,8.15
2023-01-01T20:19:43.244Z,8.55
2023-01-01T20:22:12.308Z,9.18
2023-01-01T20:24:45.655Z,8.94
2023-01-01T20:27:25.018Z,9.02
2023-01-01T20:30:38.582Z,9.16
2023-01-01T20:33:16.761Z,9.32
2023-01-01T20:36:04.674Z,9.03
2023-01-01T20:38:40.573Z,8.83
2023-01-01T20:41:24.667Z,9.10
2023-01-01T20:44:03.337Z,9.26
2023-01-01T20:46:34.609Z,9.60
2023-01-01T20:49:04.106Z,9.17
2023-01-01T20:51:33.295Z,9.28
2023-01-01T20:54:02.256Z,9.05
2023-01-01T20:56:32.484Z,9.54
2023-01-01T20:59:24.590Z,9.71
2023-01-01T21:02:00.544Z,9.79
2023-01-01T21:04:36.817Z,9.82
2023-01-01T21:07:10.982Z,9.73
2023-01-01T21:10:01.626Z,10.09
2023-01-01T21:12:31.244Z,9.29
2023-01-01T21:15:16.418Z,9.37
2023-01-01T21:18:05.132Z,9.79
2023-01-01T21:20:41.339Z,10.21
2023-01-01T21:23:33.464Z,10.42
2023-01-01T21:26:02.702Z,10.68
2023-01-01T21:28:35.093Z,10.83
2023-01-01T21:31:13.536Z,11.22
2023-01-01T21:33:44.568Z,11.78
2023-01-01T21:36:27.459Z,11.40
2023-01-01T21:39:12.837Z,11.52
2023-01-01T21:41:44.738Z,11.62
2023-01-01T21:44:16.549Z,11.90
2023-01-01T21:46:55.425Z,12.07
2023-01-01T21:49:37.384Z,12.18
2023-01-01T21:52:22.607Z,12.12
2023-01-01T21:54:53.815Z,12.21
2023-01-01T21:57:24.860Z,11.90
2023-01-01T21:59:55.198Z,12.15
2023-01-01T22:02:33.404Z,12.19
2023-01-01T22:05:20.986Z,12.19
2023-01-01T22:07:58.596Z,11.57
2023-01-01T22:10:40.197Z,10.97
2023-01-01T22:13:16.356Z,10.48
2023-01-01T22:15:46.636Z,9.75
2023-01-01T22:18:22.011Z,10.19
2023-01-01T22:20:51.601Z,9.43
2023-01-01T22:23:25.521Z,9.01
2023-01-01T22:25:54.595Z,9.17
2023-01-01T22:28:26.118Z,9.56
2023-01-01T22:31:00.266Z,8.90
2023-01-01T22:33:33.715Z,9.06
2023-01-01T22:36:03.408Z,9.56
2023-01-01T22:38:34.955Z,9.65
2023-01-01T22:41:04.333Z,9.69
2023-01-01T22:43:35.832Z,9.58
2023-01-01T22:46:22.471Z,9.57
2023-01-01T22:48:57.722Z,9.16
2023-01-01T22:51:33.079Z,9.66
2023-01-01T22:54:02.146Z,9.77
2023-01-01T22:56:31.038Z,9.97
2023-01-01T22:59:00.046Z,10.19
2023-01-01T23:01:30.156Z,10.00
2023-01-01T23:03:59.276Z,9.82
2023-01-01T23:06:28.474Z,9.73
2023-01-01T23:08:58.258Z,9.73
2023-01-01T23:11:28.116Z,9.70
2023-01-01T23:14:16.553Z,9.59
2023-01-01T23:16:45.574Z,9.48
2023-01-01T23:19:14.519Z,9.35
2023-01-01T23:21:46.723Z,9.21
2023-01-01T23:24:19.573Z,9.11
2023-01-01T23:26:50.868Z,9.13
2023-01-01T23:29:22.264Z,9.06
2023-01-01T23:31:52.022Z,8.95
2023-01-01T23:34:21.089Z,8.89
2023-01-01T23:36:52.592Z,8.80
2023-01-01T23:39:23.555Z,8.66
2023-01-01T23:41:52.965Z,8.60
2023-01-01T23:44:23.455Z,8.57
2023-01-01T23:46:53.387Z,8.51
2023-01-01T23:49:23.835Z,8.50
2023-01-01T23:52:47.192Z,8.38
2023-01-01T23:55:52.015Z,8.23
2023-01-01T23:58:24.117Z,8.16
